Airfield :
LOGIN :

Register | Disclaimer

   EN    FR    IT 

 










Legend :    VFR   Marginal VFR   IFR   Intensive IFR   Very Intensive IFR
Visi :
Ceiling :
>= 8 km
>= 3000ft
5 to 8 km
1000 to 3000 ft
1500m to 5 km
500 to 1000 ft
800 to 1500m
200 to 500 ft
< 800m
< 200 ft
Symbols :   Thunderstorms  Fog  Heavy snow  Heavy precipitations  Wind > 20 kt
SIGMETs :     Misc.  Thunderstorms  Icing  Turbulence  Mountain Waves  Volcanic Ashes






- Airport Elevation : 287 ft


LFRL - Lanveoc Poulmic

CURRENT METAR :
  • 191730Z AUTO 16007KT 130V190 9999 FEW027 BKN046 BKN180 10/06 Q1011 NOSIG

EXPIRED METARs :
  • 191700Z AUTO 17008KT 9999 BKN026 BKN046 OVC180 11/07 Q1012 NOSIG
  • 191630Z AUTO 16009KT 9999 SCT027 BKN036 BKN045 11/07 Q1012 NOSIG
  • 191600Z AUTO 16009KT 130V200 9999 BKN024 BKN044 BKN190 11/07 Q1012 NOSIG
  • 191530Z AUTO 17010KT 9999 FEW044 BKN180 BKN210 11/07 Q1012 NOSIG
  • 191500Z AUTO 17010KT 9999 FEW027 SCT180 BKN210 11/07 Q1012 NOSIG

TAF TAF LFRL
Valid from the 19 at 12:00 until the 20 at 12:00 UTC


191100Z 1912/2012 15010KT CAVOK
BECMG 1912/1915 16010G20KT
TEMPO 1921/2003 7000 RA BKN009
BECMG 2003/2006 3000 BR OVC005



MET'MAP, your aeronautical weather chart ! - Copyright ORBIFLY December 2007 - Disclaimer

ORBIFLY MET'MAP TEAM :

Programming & Development : Alexandra Zaïnal
Concept & Development : Baudouin d'Aumeries
Co-Development & Prog : Marc-Olivier Méhu
Technical & hardware support : Manuel Goepfert

Contact : metmap@orbifly.com




SOURCES & CREDITS :

   NOAA